createdAt,value
2018-10-18T00:00:12.714Z,99774.77
2018-10-18T00:02:41.379Z,99779.42
2018-10-18T00:05:10.326Z,99775.91
2018-10-18T00:07:39.018Z,99775.41
2018-10-18T00:10:08.358Z,99765.34
2018-10-18T00:12:37.108Z,99769.78
2018-10-18T00:15:06.562Z,99764.85
2018-10-18T00:17:40.230Z,99769.29
2018-10-18T00:20:09.064Z,99768.95
2018-10-18T00:22:37.630Z,99760.52
2018-10-18T00:25:06.470Z,99754.28
2018-10-18T00:27:35.211Z,99757.23
2018-10-18T00:30:03.936Z,99759.89
2018-10-18T00:32:32.550Z,99761.27
2018-10-18T00:35:01.161Z,99751.05
2018-10-18T00:37:29.763Z,99750.22
2018-10-18T00:39:58.394Z,99752.93
2018-10-18T00:42:26.966Z,99743.13
2018-10-18T00:44:55.603Z,99745.78
2018-10-18T00:47:24.220Z,99754.43
2018-10-18T00:49:52.839Z,99745.78
2018-10-18T00:52:21.490Z,99745.64
2018-10-18T00:54:50.069Z,99744.85
2018-10-18T00:57:18.682Z,99743.78
2018-10-18T00:59:47.265Z,99741.21
2018-10-18T01:02:15.963Z,99742.55
2018-10-18T01:04:44.490Z,99745.05
2018-10-18T01:07:13.338Z,99744.72
2018-10-18T01:09:41.963Z,99737.27
2018-10-18T01:12:10.666Z,99741.30
2018-10-18T01:14:44.482Z,99736.16
2018-10-18T01:17:13.083Z,99739.16
2018-10-18T01:19:41.717Z,99743.38
2018-10-18T01:22:10.389Z,99736.06
2018-10-18T01:24:39.012Z,99739.93
2018-10-18T01:27:07.933Z,99738.29
2018-10-18T01:29:36.514Z,99742.86
2018-10-18T01:32:05.713Z,99740.91
2018-10-18T01:34:34.341Z,99733.68
2018-10-18T01:37:02.935Z,99736.28
2018-10-18T01:39:31.590Z,99727.25
2018-10-18T01:42:00.281Z,99729.47
2018-10-18T01:44:28.838Z,99727.19
2018-10-18T01:46:57.470Z,99737.02
2018-10-18T01:49:26.108Z,99738.61
2018-10-18T01:51:54.762Z,99737.45
2018-10-18T01:54:23.358Z,99737.71
2018-10-18T01:56:51.951Z,99737.59
2018-10-18T01:59:20.539Z,99740.26
2018-10-18T02:01:49.202Z,99740.20
2018-10-18T02:04:17.865Z,99740.78
2018-10-18T02:06:46.455Z,99741.89
2018-10-18T02:09:15.078Z,99739.09
2018-10-18T02:11:43.722Z,99735.80
2018-10-18T02:14:12.335Z,99737.09
2018-10-18T02:16:40.989Z,99738.70
2018-10-18T02:19:09.595Z,99746.19
2018-10-18T02:21:38.210Z,99738.34
2018-10-18T02:24:07.030Z,99735.91
2018-10-18T02:26:35.558Z,99736.45
2018-10-18T02:29:04.238Z,99735.38
2018-10-18T02:31:32.891Z,99742.69
2018-10-18T02:34:01.442Z,99735.11
2018-10-18T02:36:30.107Z,99743.05
2018-10-18T02:38:58.712Z,99737.62
2018-10-18T02:41:27.369Z,99744.39
2018-10-18T02:43:55.954Z,99739.95
2018-10-18T02:46:25.394Z,99740.52
2018-10-18T02:48:54.057Z,99738.97
2018-10-18T02:51:22.663Z,99739.11
2018-10-18T02:53:51.350Z,99737.52
2018-10-18T02:56:19.982Z,99735.91
2018-10-18T02:58:48.579Z,99725.39
2018-10-18T03:01:17.181Z,99722.40
2018-10-18T03:03:45.825Z,99724.61
2018-10-18T03:06:14.595Z,99732.53
2018-10-18T03:08:43.332Z,99725.48
2018-10-18T03:11:12.010Z,99727.59
2018-10-18T03:13:40.606Z,99730.70
2018-10-18T03:16:09.282Z,99727.61
2018-10-18T03:18:37.877Z,99733.81
2018-10-18T03:21:06.510Z,99726.95
2018-10-18T03:23:35.108Z,99735.53
2018-10-18T03:26:03.715Z,99732.18
2018-10-18T03:28:32.432Z,99736.33
2018-10-18T03:31:01.097Z,99737.83
2018-10-18T03:33:29.836Z,99741.87
2018-10-18T03:35:58.843Z,99748.90
2018-10-18T03:38:27.495Z,99749.22
2018-10-18T03:40:56.266Z,99744.31
2018-10-18T03:43:24.885Z,99747.87
2018-10-18T03:45:53.520Z,99750.72
2018-10-18T03:48:22.137Z,99745.73
2018-10-18T03:50:50.782Z,99748.53
2018-10-18T03:53:19.399Z,99748.11
2018-10-18T03:55:48.089Z,99747.69
2018-10-18T03:58:16.898Z,99743.66
2018-10-18T04:00:45.606Z,99746.77
2018-10-18T04:03:14.218Z,99747.38
2018-10-18T04:05:42.824Z,99742.36
2018-10-18T04:08:11.423Z,99740.95
2018-10-18T04:10:40.086Z,99746.62
2018-10-18T04:13:08.731Z,99744.00
2018-10-18T04:15:37.326Z,99746.33
2018-10-18T04:18:06.235Z,99744.75
2018-10-18T04:20:34.678Z,99745.91
2018-10-18T04:23:03.409Z,99740.69
2018-10-18T04:25:32.104Z,99744.66
2018-10-18T04:28:00.712Z,99746.73
2018-10-18T04:30:29.320Z,99745.62
2018-10-18T04:32:58.009Z,99745.62
2018-10-18T04:35:26.636Z,99745.95
2018-10-18T04:37:55.249Z,99749.90
2018-10-18T04:40:23.893Z,99754.30
2018-10-18T04:42:52.507Z,99753.48
2018-10-18T04:45:21.137Z,99751.59
2018-10-18T04:47:49.929Z,99751.72
2018-10-18T04:50:18.375Z,99748.52
2018-10-18T04:52:46.983Z,99754.28
2018-10-18T04:55:15.656Z,99752.73
2018-10-18T04:57:44.221Z,99755.47
2018-10-18T05:00:12.885Z,99755.99
2018-10-18T05:02:41.643Z,99754.13
2018-10-18T05:05:21.217Z,99756.80
2018-10-18T05:07:49.848Z,99756.16
2018-10-18T05:10:18.451Z,99760.47
2018-10-18T05:12:47.105Z,99765.19
2018-10-18T05:15:17.221Z,99759.30
2018-10-18T05:17:45.887Z,99764.44
2018-10-18T05:20:14.597Z,99761.06
2018-10-18T05:22:43.259Z,99761.15
2018-10-18T05:25:11.972Z,99763.30
2018-10-18T05:27:40.560Z,99776.97
2018-10-18T05:30:09.548Z,99774.97
2018-10-18T05:32:38.194Z,99770.83
2018-10-18T05:35:07.083Z,99781.38
2018-10-18T05:37:35.878Z,99776.49
2018-10-18T05:40:04.853Z,99784.27
2018-10-18T05:42:33.462Z,99783.89
2018-10-18T05:45:02.154Z,99787.69
2018-10-18T05:47:30.814Z,99786.42
2018-10-18T05:49:59.466Z,99792.05
2018-10-18T05:52:28.105Z,99792.48
2018-10-18T05:54:56.794Z,99801.08
2018-10-18T05:57:31.994Z,99797.62
2018-10-18T06:00:00.660Z,99796.33
2018-10-18T06:02:29.287Z,99805.25
2018-10-18T06:04:58.025Z,99807.67
2018-10-18T06:07:26.720Z,99806.73
2018-10-18T06:12:29.238Z,99810.89
2018-10-18T06:14:57.901Z,99814.36
2018-10-18T06:17:26.570Z,99822.16
2018-10-18T06:19:55.263Z,99822.95
2018-10-18T06:22:24.336Z,99829.32
2018-10-18T06:24:52.996Z,99827.19
2018-10-18T06:27:21.702Z,99827.50
2018-10-18T06:29:50.362Z,99826.61
2018-10-18T06:32:19.024Z,99822.38
2018-10-18T06:34:47.693Z,99824.51
2018-10-18T06:37:16.359Z,99826.60
2018-10-18T06:39:45.054Z,99831.27
2018-10-18T06:42:13.719Z,99837.14
2018-10-18T06:44:42.381Z,99833.34
2018-10-18T06:47:11.346Z,99843.19
2018-10-18T06:49:39.885Z,99839.85
2018-10-18T06:52:08.466Z,99843.50
2018-10-18T06:54:37.148Z,99839.65
2018-10-18T06:57:06.742Z,99842.64
2018-10-18T06:59:35.468Z,99846.48
2018-10-18T07:02:04.367Z,99852.00
2018-10-18T07:04:33.070Z,99850.20
2018-10-18T07:07:02.245Z,99848.05
2018-10-18T07:09:30.982Z,99854.42
2018-10-18T07:11:59.842Z,99852.12
2018-10-18T07:14:28.493Z,99861.31
2018-10-18T07:16:57.223Z,99860.20
2018-10-18T07:19:25.946Z,99865.33
2018-10-18T07:21:54.732Z,99860.98
2018-10-18T07:24:23.411Z,99867.45
2018-10-18T07:26:52.218Z,99868.95
2018-10-18T07:29:20.943Z,99866.16
2018-10-18T07:31:49.644Z,99865.17
2018-10-18T07:34:18.388Z,99873.21
2018-10-18T07:36:47.224Z,99868.49
2018-10-18T07:39:15.972Z,99876.81
2018-10-18T07:41:45.025Z,99873.30
2018-10-18T07:44:13.801Z,99872.03
2018-10-18T07:46:42.576Z,99867.25
2018-10-18T07:49:11.270Z,99866.65
2018-10-18T07:51:39.983Z,99870.44
2018-10-18T07:54:08.766Z,99867.52
2018-10-18T07:56:37.461Z,99869.95
2018-10-18T07:59:06.370Z,99866.08
2018-10-18T08:01:35.071Z,99869.76
2018-10-18T08:04:03.742Z,99875.52
2018-10-18T08:06:32.534Z,99875.02
2018-10-18T08:09:01.360Z,99874.02
2018-10-18T08:11:30.136Z,99878.54
2018-10-18T08:13:58.912Z,99880.99
2018-10-18T08:16:27.702Z,99879.64
2018-10-18T08:18:56.506Z,99873.50
2018-10-18T08:21:25.279Z,99866.52
2018-10-18T08:23:54.013Z,99870.66
2018-10-18T08:26:22.873Z,99867.94
2018-10-18T08:28:51.651Z,99865.58
2018-10-18T08:31:20.611Z,99861.88
2018-10-18T08:33:49.349Z,99864.37
2018-10-18T08:36:18.194Z,99858.09
2018-10-18T08:38:47.073Z,99862.11
2018-10-18T08:41:16.486Z,99870.28
2018-10-18T08:43:45.371Z,99870.39
2018-10-18T08:46:14.178Z,99869.17
2018-10-18T08:48:42.952Z,99868.62
2018-10-18T08:51:11.740Z,99860.15
2018-10-18T08:53:41.350Z,99853.78
2018-10-18T08:56:10.227Z,99858.57
2018-10-18T08:58:39.031Z,99864.95
2018-10-18T09:01:07.789Z,99868.45
2018-10-18T09:03:36.480Z,99869.58
2018-10-18T09:06:05.666Z,99864.92
2018-10-18T09:08:34.413Z,99867.20
2018-10-18T09:11:03.232Z,99864.89
2018-10-18T09:13:31.990Z,99860.40
2018-10-18T09:16:00.848Z,99857.40
2018-10-18T09:18:29.550Z,99854.05
2018-10-18T09:20:58.266Z,99856.13
2018-10-18T09:23:26.982Z,99854.49
2018-10-18T09:25:55.799Z,99860.70
2018-10-18T09:28:24.576Z,99854.70
2018-10-18T09:30:53.332Z,99852.62
2018-10-18T09:33:22.031Z,99850.97
2018-10-18T09:35:50.731Z,99851.78
2018-10-18T09:38:19.519Z,99853.56
2018-10-18T09:40:48.287Z,99850.49
2018-10-18T09:43:17.231Z,99849.75
2018-10-18T09:45:45.976Z,99841.22
2018-10-18T09:48:14.839Z,99846.42
2018-10-18T09:50:43.590Z,99837.89
2018-10-18T09:53:12.283Z,99838.38
2018-10-18T09:55:41.086Z,99836.09
2018-10-18T09:58:09.844Z,99837.27
2018-10-18T10:00:43.549Z,99831.31
2018-10-18T10:03:13.632Z,99832.53
2018-10-18T10:05:42.419Z,99833.14
2018-10-18T10:08:11.516Z,99833.89
2018-10-18T10:10:40.300Z,99830.09
2018-10-18T10:13:09.545Z,99829.41
2018-10-18T10:15:38.275Z,99825.20
2018-10-18T10:18:07.040Z,99827.30
2018-10-18T10:20:35.900Z,99825.80
2018-10-18T10:23:04.664Z,99816.34
2018-10-18T10:25:33.428Z,99811.76
2018-10-18T10:28:02.317Z,99816.03
2018-10-18T10:30:31.154Z,99811.45
2018-10-18T10:32:59.841Z,99803.67
2018-10-18T10:35:28.727Z,99812.07
2018-10-18T10:37:57.573Z,99804.13
2018-10-18T10:40:26.348Z,99797.96
2018-10-18T10:42:55.212Z,99794.02
2018-10-18T10:45:24.234Z,99794.64
2018-10-18T10:47:53.275Z,99797.28
2018-10-18T10:50:22.090Z,99796.84
2018-10-18T10:52:50.876Z,99795.09
2018-10-18T10:55:19.593Z,99798.05
2018-10-18T10:57:48.306Z,99798.44
2018-10-18T11:00:26.890Z,99796.16
2018-10-18T11:02:55.643Z,99794.32
2018-10-18T11:05:24.364Z,99789.58
2018-10-18T11:07:53.077Z,99792.39
2018-10-18T11:10:21.754Z,99789.38
2018-10-18T11:12:50.489Z,99786.78
2018-10-18T11:15:19.336Z,99789.23
2018-10-18T11:17:47.951Z,99785.09
2018-10-18T11:20:16.697Z,99778.92
2018-10-18T11:22:45.436Z,99779.73
2018-10-18T11:25:14.185Z,99770.95
2018-10-18T11:27:42.945Z,99773.17
2018-10-18T11:30:11.741Z,99771.30
2018-10-18T11:32:40.462Z,99764.16
2018-10-18T11:35:09.164Z,99759.34
2018-10-18T11:37:37.935Z,99763.30
2018-10-18T11:40:07.254Z,99761.36
2018-10-18T11:42:36.089Z,99760.61
2018-10-18T11:45:04.747Z,99758.77
2018-10-18T11:47:33.575Z,99766.88
2018-10-18T11:50:02.304Z,99756.87
2018-10-18T11:52:31.010Z,99755.19
2018-10-18T11:54:59.695Z,99758.67
2018-10-18T11:57:28.401Z,99753.87
2018-10-18T11:59:57.110Z,99757.78
2018-10-18T12:02:25.871Z,99751.68
2018-10-18T12:04:54.660Z,99745.25
2018-10-18T12:07:23.419Z,99744.80
2018-10-18T12:09:52.142Z,99739.98
2018-10-18T12:12:20.820Z,99739.69
2018-10-18T12:14:49.549Z,99737.66
2018-10-18T12:17:18.260Z,99739.00
2018-10-18T12:19:46.967Z,99740.90
2018-10-18T12:22:15.688Z,99739.60
2018-10-18T12:24:44.385Z,99743.80
2018-10-18T12:27:13.188Z,99739.05
2018-10-18T12:29:41.896Z,99732.03
2018-10-18T12:32:10.679Z,99734.60
2018-10-18T12:34:39.439Z,99734.83
2018-10-18T12:37:08.137Z,99732.34
2018-10-18T12:39:36.887Z,99733.65
2018-10-18T12:42:05.639Z,99730.08
2018-10-18T12:44:40.018Z,99732.38
2018-10-18T12:47:10.495Z,99727.91
2018-10-18T12:49:40.498Z,99729.66
2018-10-18T12:52:10.789Z,99724.05
2018-10-18T12:54:39.809Z,99729.73
2018-10-18T12:57:10.098Z,99733.62
2018-10-18T12:59:38.788Z,99728.89
2018-10-18T13:02:07.766Z,99732.86
2018-10-18T13:04:36.765Z,99735.84
2018-10-18T13:07:05.659Z,99734.59
2018-10-18T13:09:34.473Z,99740.23
2018-10-18T13:12:03.193Z,99735.23
2018-10-18T13:14:31.922Z,99734.37
2018-10-18T13:17:00.622Z,99735.09
2018-10-18T13:19:29.300Z,99735.18
2018-10-18T13:21:58.014Z,99739.38
2018-10-18T13:24:26.676Z,99736.48
2018-10-18T13:26:55.384Z,99741.56
2018-10-18T13:29:24.077Z,99739.72
2018-10-18T13:31:52.729Z,99741.60
2018-10-18T13:34:21.387Z,99736.34
2018-10-18T13:36:50.030Z,99737.47
2018-10-18T13:39:18.711Z,99733.73
2018-10-18T13:41:47.378Z,99739.16
2018-10-18T13:44:16.054Z,99742.06
2018-10-18T13:46:44.764Z,99742.91
2018-10-18T13:49:13.419Z,99740.76
2018-10-18T13:51:42.277Z,99733.19
2018-10-18T13:54:11.056Z,99735.30
2018-10-18T13:56:39.623Z,99735.91
2018-10-18T13:59:18.144Z,99735.30
2018-10-18T14:01:46.702Z,99734.97
2018-10-18T14:04:15.383Z,99727.29
2018-10-18T14:06:44.034Z,99730.70
2018-10-18T14:09:12.679Z,99733.97
2018-10-18T14:11:41.439Z,99733.69
2018-10-18T14:14:10.200Z,99727.40
2018-10-18T14:16:38.836Z,99722.52
2018-10-18T14:19:07.488Z,99725.41
2018-10-18T14:21:36.254Z,99721.01
2018-10-18T14:24:05.688Z,99718.13
2018-10-18T14:26:34.340Z,99719.13
2018-10-18T14:29:03.044Z,99717.44
2018-10-18T14:31:31.706Z,99717.04
2018-10-18T14:34:00.342Z,99719.36
2018-10-18T14:36:29.084Z,99713.66
2018-10-18T14:38:57.916Z,99718.86
2018-10-18T14:41:31.987Z,99714.34
2018-10-18T14:44:00.683Z,99715.98
2018-10-18T14:46:29.350Z,99712.73
2018-10-18T14:48:58.010Z,99716.20
2018-10-18T14:51:26.683Z,99711.97
2018-10-18T14:53:55.366Z,99710.97
2018-10-18T14:56:24.153Z,99706.16
2018-10-18T14:58:52.899Z,99707.77
2018-10-18T15:01:21.595Z,99711.89
2018-10-18T15:03:50.428Z,99709.90
2018-10-18T15:06:19.275Z,99707.12
2018-10-18T15:08:47.967Z,99710.70
2018-10-18T15:11:16.661Z,99710.60
2018-10-18T15:13:45.379Z,99710.71
2018-10-18T15:16:14.148Z,99717.97
2018-10-18T15:18:42.890Z,99714.75
2018-10-18T15:21:11.595Z,99712.44
2018-10-18T15:23:40.263Z,99711.91
2018-10-18T15:26:09.098Z,99708.47
2018-10-18T15:28:37.683Z,99719.86
2018-10-18T15:31:06.407Z,99717.34
2018-10-18T15:33:35.112Z,99718.29
2018-10-18T15:36:03.937Z,99722.54
2018-10-18T15:38:32.668Z,99721.28
2018-10-18T15:41:01.333Z,99722.55
2018-10-18T15:43:30.064Z,99723.41
2018-10-18T15:45:58.735Z,99721.61
2018-10-18T15:48:27.416Z,99720.16
2018-10-18T15:50:56.122Z,99725.84
2018-10-18T15:53:24.754Z,99729.22
2018-10-18T15:55:53.464Z,99722.41
2018-10-18T15:58:22.120Z,99726.94
2018-10-18T16:00:50.793Z,99731.75
2018-10-18T16:03:19.587Z,99732.53
2018-10-18T16:05:48.247Z,99734.30
2018-10-18T16:08:16.991Z,99735.02
2018-10-18T16:10:45.715Z,99739.98
2018-10-18T16:13:14.486Z,99739.67
2018-10-18T16:15:43.229Z,99738.47
2018-10-18T16:18:11.945Z,99738.42
2018-10-18T16:20:40.735Z,99745.36
2018-10-18T16:23:09.471Z,99746.09
2018-10-18T16:25:38.206Z,99746.41
2018-10-18T16:28:06.971Z,99750.63
2018-10-18T16:30:35.604Z,99754.41
2018-10-18T16:33:04.398Z,99753.53
2018-10-18T16:35:33.073Z,99750.47
2018-10-18T16:38:01.765Z,99750.87
2018-10-18T16:40:30.522Z,99759.72
2018-10-18T16:43:04.724Z,99760.86
2018-10-18T16:45:33.452Z,99762.94
2018-10-18T16:48:02.166Z,99767.91
2018-10-18T16:50:30.859Z,99771.55
2018-10-18T16:52:59.583Z,99776.42
2018-10-18T16:55:28.235Z,99777.55
2018-10-18T16:57:56.975Z,99776.00
2018-10-18T17:00:25.635Z,99780.05
2018-10-18T17:02:54.360Z,99781.09
2018-10-18T17:05:23.098Z,99783.03
2018-10-18T17:07:51.850Z,99793.02
2018-10-18T17:10:20.630Z,99796.53
2018-10-18T17:12:49.213Z,99794.47
2018-10-18T17:15:18.198Z,99792.78
2018-10-18T17:17:47.818Z,99797.58
2018-10-18T17:20:16.712Z,99792.07
2018-10-18T17:22:45.308Z,99794.90
2018-10-18T17:25:14.006Z,99797.61
2018-10-18T17:27:42.717Z,99798.55
2018-10-18T17:30:11.376Z,99798.05
2018-10-18T17:32:40.160Z,99800.95
2018-10-18T17:35:08.845Z,99811.91
2018-10-18T17:37:37.574Z,99807.75
2018-10-18T17:40:06.849Z,99806.57
2018-10-18T17:42:35.465Z,99811.95
2018-10-18T17:45:04.175Z,99815.55
2018-10-18T17:47:32.859Z,99812.98
2018-10-18T17:50:01.569Z,99813.14
2018-10-18T17:52:30.216Z,99813.52
2018-10-18T17:54:58.941Z,99816.08
2018-10-18T17:57:27.614Z,99819.52
2018-10-18T17:59:56.417Z,99820.17
2018-10-18T18:02:25.091Z,99819.97
2018-10-18T18:04:53.791Z,99820.92
2018-10-18T18:07:22.470Z,99819.56
2018-10-18T18:09:51.107Z,99821.20
2018-10-18T18:12:19.801Z,99825.06
2018-10-18T18:14:48.528Z,99814.31
2018-10-18T18:17:17.238Z,99820.46
2018-10-18T18:19:46.006Z,99823.11
2018-10-18T18:22:14.667Z,99820.69
2018-10-18T18:24:43.420Z,99824.48
2018-10-18T18:27:12.077Z,99825.61
2018-10-18T18:29:40.734Z,99824.63
2018-10-18T18:32:09.524Z,99828.91
2018-10-18T18:34:38.316Z,99833.17
2018-10-18T18:37:07.076Z,99839.27
2018-10-18T18:39:35.817Z,99836.65
2018-10-18T18:42:04.586Z,99840.20
2018-10-18T18:44:33.320Z,99835.16
2018-10-18T18:47:02.046Z,99838.12
2018-10-18T18:49:30.805Z,99849.02
2018-10-18T18:51:59.599Z,99840.92
2018-10-18T18:54:28.338Z,99844.05
2018-10-18T18:56:57.086Z,99848.02
2018-10-18T18:59:25.775Z,99847.36
2018-10-18T19:01:54.475Z,99846.22
2018-10-18T19:04:23.174Z,99850.22
2018-10-18T19:06:51.818Z,99851.20
2018-10-18T19:09:20.439Z,99852.18
2018-10-18T19:11:49.303Z,99857.83
2018-10-18T19:14:17.998Z,99858.48
2018-10-18T19:16:46.740Z,99859.73
2018-10-18T19:19:15.516Z,99866.27
2018-10-18T19:21:44.289Z,99869.86
2018-10-18T19:24:13.197Z,99868.16
2018-10-18T19:26:41.944Z,99872.59
2018-10-18T19:29:10.696Z,99873.30
2018-10-18T19:31:39.527Z,99870.63
2018-10-18T19:34:08.497Z,99876.63
2018-10-18T19:36:37.314Z,99877.44
2018-10-18T19:39:07.942Z,99877.98
2018-10-18T19:41:36.684Z,99876.53
2018-10-18T19:44:05.732Z,99877.13
2018-10-18T19:46:34.541Z,99880.70
2018-10-18T19:49:03.343Z,99881.31
2018-10-18T19:51:32.202Z,99880.02
2018-10-18T19:54:00.908Z,99878.87
2018-10-18T19:56:29.542Z,99883.31
2018-10-18T19:58:58.187Z,99883.31
2018-10-18T20:01:26.910Z,99888.43
2018-10-18T20:03:55.635Z,99887.53
2018-10-18T20:06:24.361Z,99888.07
2018-10-18T20:08:53.093Z,99897.56
2018-10-18T20:11:21.847Z,99899.25
2018-10-18T20:13:50.589Z,99896.42
2018-10-18T20:16:19.321Z,99901.94
2018-10-18T20:18:48.290Z,99897.34
2018-10-18T20:21:17.084Z,99897.80
2018-10-18T20:23:45.916Z,99900.35
2018-10-18T20:26:14.840Z,99895.66
2018-10-18T20:28:43.360Z,99898.23
2018-10-18T20:31:12.174Z,99899.64
2018-10-18T20:33:40.824Z,99905.38
2018-10-18T20:36:09.610Z,99909.39
2018-10-18T20:38:38.316Z,99907.32
2018-10-18T20:41:07.173Z,99905.82
2018-10-18T20:43:35.826Z,99913.91
2018-10-18T20:46:04.645Z,99910.95
2018-10-18T20:48:34.004Z,99908.82
2018-10-18T20:51:03.521Z,99908.81
2018-10-18T20:53:32.483Z,99912.66
2018-10-18T20:56:02.110Z,99913.58
2018-10-18T20:58:31.930Z,99910.47
2018-10-18T21:01:00.830Z,99903.78
2018-10-18T21:03:29.525Z,99910.52
2018-10-18T21:05:59.071Z,99910.14
2018-10-18T21:08:27.676Z,99911.70
2018-10-18T21:10:56.444Z,99916.06
2018-10-18T21:13:25.117Z,99916.16
2018-10-18T21:15:53.776Z,99913.83
2018-10-18T21:18:22.566Z,99918.77
2018-10-18T21:20:51.325Z,99921.92
2018-10-18T21:23:20.041Z,99925.78
2018-10-18T21:25:48.766Z,99919.42
2018-10-18T21:28:17.475Z,99920.87
2018-10-18T21:30:46.198Z,99920.22
2018-10-18T21:33:14.997Z,99916.42
2018-10-18T21:35:43.595Z,99918.78
2018-10-18T21:38:12.251Z,99916.02
2018-10-18T21:40:40.935Z,99913.85
2018-10-18T21:43:09.577Z,99919.09
2018-10-18T21:45:38.326Z,99914.41
2018-10-18T21:48:07.154Z,99925.20
2018-10-18T21:50:35.785Z,99925.39
2018-10-18T21:53:04.505Z,99928.55
2018-10-18T21:55:33.147Z,99923.86
2018-10-18T21:58:01.884Z,99927.20
2018-10-18T22:00:35.109Z,99924.78
2018-10-18T22:03:03.901Z,99921.95
2018-10-18T22:05:32.506Z,99923.84
2018-10-18T22:08:01.250Z,99928.39
2018-10-18T22:10:29.894Z,99932.09
2018-10-18T22:12:58.555Z,99936.86
2018-10-18T22:15:27.277Z,99935.30
2018-10-18T22:17:55.887Z,99936.20
2018-10-18T22:20:24.743Z,99943.44
2018-10-18T22:22:53.426Z,99936.22
2018-10-18T22:25:22.110Z,99946.59
2018-10-18T22:27:50.819Z,99942.27
2018-10-18T22:30:19.503Z,99942.21
2018-10-18T22:32:48.175Z,99940.00
2018-10-18T22:35:16.923Z,99946.33
2018-10-18T22:37:45.540Z,99938.72
2018-10-18T22:40:14.263Z,99940.02
2018-10-18T22:42:42.957Z,99942.05
2018-10-18T22:45:11.657Z,99939.44
2018-10-18T22:47:40.235Z,99941.95
2018-10-18T22:50:08.896Z,99940.33
2018-10-18T22:52:37.573Z,99943.70
2018-10-18T22:55:06.643Z,99942.10
2018-10-18T22:57:35.274Z,99934.98
2018-10-18T23:00:04.056Z,99934.66
2018-10-18T23:02:32.697Z,99937.70
2018-10-18T23:05:01.447Z,99939.03
2018-10-18T23:07:30.134Z,99933.91
2018-10-18T23:09:58.867Z,99937.77
2018-10-18T23:12:27.663Z,99938.95
2018-10-18T23:14:56.387Z,99935.56
2018-10-18T23:17:25.027Z,99933.90
2018-10-18T23:19:53.682Z,99931.39
2018-10-18T23:22:22.347Z,99925.87
2018-10-18T23:24:51.085Z,99932.05
2018-10-18T23:27:18.819Z,99929.90
2018-10-18T23:29:47.578Z,99928.72
2018-10-18T23:32:16.220Z,99928.36
2018-10-18T23:34:44.910Z,99928.36
2018-10-18T23:37:13.590Z,99930.58
2018-10-18T23:39:42.300Z,99928.17
2018-10-18T23:42:11.018Z,99931.61
2018-10-18T23:44:39.679Z,99931.55
2018-10-18T23:47:08.372Z,99928.27
2018-10-18T23:49:37.000Z,99930.50
2018-10-18T23:52:05.812Z,99934.75
2018-10-18T23:54:34.668Z,99932.27
2018-10-18T23:57:03.365Z,99936.55
2018-10-18T23:59:32.178Z,99934.89
